sensor_id;sensor_type;location;lat;lon;timestamp;pressure;altitude;pressure_sealevel;temperature;humidity
43503;BME280;29098;48.184;16.298;2023-07-09T00:01:55;99728.44;;;19.27;79.20
43503;BME280;29098;48.184;16.298;2023-07-09T00:04:21;99748.91;;;19.33;78.96
43503;BME280;29098;48.184;16.298;2023-07-09T00:06:46;99741.94;;;19.20;79.65
43503;BME280;29098;48.184;16.298;2023-07-09T00:09:18;99722.59;;;19.06;78.39
43503;BME280;29098;48.184;16.298;2023-07-09T00:11:45;99781.81;;;19.34;78.57
43503;BME280;29098;48.184;16.298;2023-07-09T00:14:12;99780.63;;;19.29;78.37
43503;BME280;29098;48.184;16.298;2023-07-09T00:16:39;99756.22;;;19.26;79.57
43503;BME280;29098;48.184;16.298;2023-07-09T00:19:12;99758.22;;;19.30;77.93
43503;BME280;29098;48.184;16.298;2023-07-09T00:21:39;99742.63;;;18.97;79.35
43503;BME280;29098;48.184;16.298;2023-07-09T00:24:04;99759.69;;;19.14;79.12
43503;BME280;29098;48.184;16.298;2023-07-09T00:26:31;99775.63;;;19.21;79.32
43503;BME280;29098;48.184;16.298;2023-07-09T00:28:57;99776.13;;;19.30;78.36
43503;BME280;29098;48.184;16.298;2023-07-09T00:31:24;99739.97;;;18.97;79.30
43503;BME280;29098;48.184;16.298;2023-07-09T00:33:49;99777.31;;;19.03;80.05
43503;BME280;29098;48.184;16.298;2023-07-09T00:36:18;99763.53;;;19.19;78.46
43503;BME280;29098;48.184;16.298;2023-07-09T00:38:43;99761.38;;;18.78;80.62
43503;BME280;29098;48.184;16.298;2023-07-09T00:41:16;99755.00;;;18.79;79.79
43503;BME280;29098;48.184;16.298;2023-07-09T00:43:44;99764.06;;;18.78;80.01
43503;BME280;29098;48.184;16.298;2023-07-09T00:48:57;99789.53;;;19.11;79.38
43503;BME280;29098;48.184;16.298;2023-07-09T00:51:26;99729.38;;;18.59;80.52
43503;BME280;29098;48.184;16.298;2023-07-09T00:53:57;99740.19;;;18.65;80.51
43503;BME280;29098;48.184;16.298;2023-07-09T00:56:37;99737.16;;;18.61;80.97
43503;BME280;29098;48.184;16.298;2023-07-09T00:59:05;99772.38;;;18.70;81.55
43503;BME280;29098;48.184;16.298;2023-07-09T01:01:34;99794.72;;;18.57;81.64
43503;BME280;29098;48.184;16.298;2023-07-09T01:04:00;99757.94;;;18.40;81.92
43503;BME280;29098;48.184;16.298;2023-07-09T01:06:32;99759.34;;;18.61;81.56
43503;BME280;29098;48.184;16.298;2023-07-09T01:09:01;99735.94;;;18.45;81.25
43503;BME280;29098;48.184;16.298;2023-07-09T01:11:27;99753.66;;;18.58;82.10
43503;BME280;29098;48.184;16.298;2023-07-09T01:13:55;99783.59;;;18.60;81.70
43503;BME280;29098;48.184;16.298;2023-07-09T01:16:25;99759.03;;;18.51;81.33
43503;BME280;29098;48.184;16.298;2023-07-09T01:18:53;99765.66;;;18.48;81.93
43503;BME280;29098;48.184;16.298;2023-07-09T01:21:18;99748.81;;;18.48;82.62
43503;BME280;29098;48.184;16.298;2023-07-09T01:23:46;99774.16;;;18.57;81.42
43503;BME280;29098;48.184;16.298;2023-07-09T01:26:14;99768.66;;;18.71;81.09
43503;BME280;29098;48.184;16.298;2023-07-09T01:28:40;99777.56;;;18.65;81.65
43503;BME280;29098;48.184;16.298;2023-07-09T01:31:12;99788.94;;;18.60;81.76
43503;BME280;29098;48.184;16.298;2023-07-09T01:33:39;99777.00;;;18.44;81.26
43503;BME280;29098;48.184;16.298;2023-07-09T01:36:09;99768.09;;;18.50;80.98
43503;BME280;29098;48.184;16.298;2023-07-09T01:38:35;99757.88;;;18.47;81.14
43503;BME280;29098;48.184;16.298;2023-07-09T01:41:01;99773.75;;;18.42;80.87
43503;BME280;29098;48.184;16.298;2023-07-09T01:43:28;99761.88;;;18.56;81.07
43503;BME280;29098;48.184;16.298;2023-07-09T01:45:53;99786.34;;;18.34;81.76
43503;BME280;29098;48.184;16.298;2023-07-09T01:48:23;99764.31;;;18.39;81.96
43503;BME280;29098;48.184;16.298;2023-07-09T01:50:50;99761.44;;;18.22;82.58
43503;BME280;29098;48.184;16.298;2023-07-09T01:53:19;99776.50;;;18.35;82.80
43503;BME280;29098;48.184;16.298;2023-07-09T01:55:49;99761.72;;;18.32;82.47
43503;BME280;29098;48.184;16.298;2023-07-09T01:58:15;99760.91;;;18.32;82.01
43503;BME280;29098;48.184;16.298;2023-07-09T02:00:41;99794.22;;;18.29;83.03
43503;BME280;29098;48.184;16.298;2023-07-09T02:03:07;99783.84;;;18.40;82.44
43503;BME280;29098;48.184;16.298;2023-07-09T02:05:35;99781.09;;;18.02;83.19
43503;BME280;29098;48.184;16.298;2023-07-09T02:08:01;99788.56;;;18.19;82.71
43503;BME280;29098;48.184;16.298;2023-07-09T02:10:26;99746.81;;;18.06;82.51
43503;BME280;29098;48.184;16.298;2023-07-09T02:12:52;99757.88;;;18.10;83.14
43503;BME280;29098;48.184;16.298;2023-07-09T02:15:17;99766.13;;;18.01;83.08
43503;BME280;29098;48.184;16.298;2023-07-09T02:17:43;99803.69;;;18.25;82.70
43503;BME280;29098;48.184;16.298;2023-07-09T02:20:10;99782.09;;;18.08;82.56
43503;BME280;29098;48.184;16.298;2023-07-09T02:22:37;99790.63;;;18.17;83.22
43503;BME280;29098;48.184;16.298;2023-07-09T02:25:04;99739.66;;;18.06;82.37
43503;BME280;29098;48.184;16.298;2023-07-09T02:27:31;99801.84;;;18.26;82.79
43503;BME280;29098;48.184;16.298;2023-07-09T02:29:57;99797.56;;;17.99;83.74
43503;BME280;29098;48.184;16.298;2023-07-09T02:32:26;99803.59;;;17.88;85.00
43503;BME280;29098;48.184;16.298;2023-07-09T02:34:52;99805.72;;;18.04;83.97
43503;BME280;29098;48.184;16.298;2023-07-09T02:37:23;99792.88;;;17.69;84.35
43503;BME280;29098;48.184;16.298;2023-07-09T02:39:50;99762.72;;;17.69;84.51
43503;BME280;29098;48.184;16.298;2023-07-09T02:42:17;99771.59;;;17.88;82.93
43503;BME280;29098;48.184;16.298;2023-07-09T02:44:44;99818.28;;;17.97;84.71
43503;BME280;29098;48.184;16.298;2023-07-09T02:47:10;99797.50;;;17.80;85.03
43503;BME280;29098;48.184;16.298;2023-07-09T02:49:36;99815.00;;;17.76;85.26
43503;BME280;29098;48.184;16.298;2023-07-09T02:52:01;99788.59;;;17.68;85.29
43503;BME280;29098;48.184;16.298;2023-07-09T02:54:27;99799.13;;;17.82;86.09
43503;BME280;29098;48.184;16.298;2023-07-09T02:56:52;99805.00;;;17.65;85.95
43503;BME280;29098;48.184;16.298;2023-07-09T02:59:18;99801.19;;;17.79;84.47
43503;BME280;29098;48.184;16.298;2023-07-09T03:01:43;99820.16;;;17.71;85.99
43503;BME280;29098;48.184;16.298;2023-07-09T03:04:09;99803.56;;;17.69;85.57
43503;BME280;29098;48.184;16.298;2023-07-09T03:06:35;99814.75;;;17.78;85.56
43503;BME280;29098;48.184;16.298;2023-07-09T03:09:02;99801.16;;;17.61;86.12
43503;BME280;29098;48.184;16.298;2023-07-09T03:11:33;99807.03;;;17.70;86.06
43503;BME280;29098;48.184;16.298;2023-07-09T03:13:59;99838.84;;;17.90;85.02
43503;BME280;29098;48.184;16.298;2023-07-09T03:16:31;99843.69;;;17.74;86.71
43503;BME280;29098;48.184;16.298;2023-07-09T03:18:57;99848.03;;;17.75;86.31
43503;BME280;29098;48.184;16.298;2023-07-09T03:21:24;99821.47;;;17.55;85.58
43503;BME280;29098;48.184;16.298;2023-07-09T03:23:50;99824.13;;;17.62;86.59
43503;BME280;29098;48.184;16.298;2023-07-09T03:26:16;99832.53;;;17.59;86.09
43503;BME280;29098;48.184;16.298;2023-07-09T03:28:42;99816.91;;;17.62;86.23
43503;BME280;29098;48.184;16.298;2023-07-09T03:31:07;99842.34;;;17.65;86.90
43503;BME280;29098;48.184;16.298;2023-07-09T03:33:33;99846.22;;;17.69;86.90
43503;BME280;29098;48.184;16.298;2023-07-09T03:35:58;99826.94;;;17.67;86.45
43503;BME280;29098;48.184;16.298;2023-07-09T03:38:24;99811.19;;;17.59;86.53
43503;BME280;29098;48.184;16.298;2023-07-09T03:40:51;99844.31;;;17.76;86.54
43503;BME280;29098;48.184;16.298;2023-07-09T03:43:16;99820.22;;;17.64;86.63
43503;BME280;29098;48.184;16.298;2023-07-09T03:45:44;99811.66;;;17.56;87.15
43503;BME280;29098;48.184;16.298;2023-07-09T03:48:10;99844.47;;;17.56;87.70
43503;BME280;29098;48.184;16.298;2023-07-09T03:50:35;99838.53;;;17.79;85.86
43503;BME280;29098;48.184;16.298;2023-07-09T03:53:00;99825.91;;;17.68;85.92
43503;BME280;29098;48.184;16.298;2023-07-09T03:55:26;99818.50;;;17.70;85.43
43503;BME280;29098;48.184;16.298;2023-07-09T03:57:54;99811.00;;;17.60;86.47
43503;BME280;29098;48.184;16.298;2023-07-09T04:00:20;99804.69;;;17.55;86.94
43503;BME280;29098;48.184;16.298;2023-07-09T04:02:45;99818.78;;;17.62;86.73
43503;BME280;29098;48.184;16.298;2023-07-09T04:05:11;99828.31;;;17.76;84.62
43503;BME280;29098;48.184;16.298;2023-07-09T04:07:38;99807.78;;;17.77;84.20
43503;BME280;29098;48.184;16.298;2023-07-09T04:10:04;99826.69;;;17.75;85.38
43503;BME280;29098;48.184;16.298;2023-07-09T04:12:30;99831.75;;;17.84;85.88
43503;BME280;29098;48.184;16.298;2023-07-09T04:14:56;99819.19;;;17.91;85.03
43503;BME280;29098;48.184;16.298;2023-07-09T04:17:21;99814.84;;;17.90;83.85
43503;BME280;29098;48.184;16.298;2023-07-09T04:19:49;99819.50;;;18.01;83.92
43503;BME280;29098;48.184;16.298;2023-07-09T04:22:14;99824.13;;;17.87;86.34
43503;BME280;29098;48.184;16.298;2023-07-09T04:24:40;99828.63;;;17.87;85.10
43503;BME280;29098;48.184;16.298;2023-07-09T04:27:06;99794.19;;;17.85;84.94
43503;BME280;29098;48.184;16.298;2023-07-09T04:29:32;99807.84;;;17.96;83.59
43503;BME280;29098;48.184;16.298;2023-07-09T04:32:05;99817.41;;;18.03;83.83
43503;BME280;29098;48.184;16.298;2023-07-09T04:34:30;99809.59;;;18.09;82.74
43503;BME280;29098;48.184;16.298;2023-07-09T04:36:56;99844.75;;;18.24;82.33
43503;BME280;29098;48.184;16.298;2023-07-09T04:39:21;99809.78;;;18.14;82.51
43503;BME280;29098;48.184;16.298;2023-07-09T04:41:47;99809.22;;;18.05;82.95
43503;BME280;29098;48.184;16.298;2023-07-09T04:44:13;99852.94;;;18.29;82.77
43503;BME280;29098;48.184;16.298;2023-07-09T04:46:39;99831.03;;;18.20;82.41
43503;BME280;29098;48.184;16.298;2023-07-09T04:49:05;99822.16;;;18.27;81.30
43503;BME280;29098;48.184;16.298;2023-07-09T04:51:30;99845.38;;;18.45;81.60
43503;BME280;29098;48.184;16.298;2023-07-09T04:53:56;99872.75;;;18.59;81.31
43503;BME280;29098;48.184;16.298;2023-07-09T04:56:21;99872.66;;;18.47;81.52
43503;BME280;29098;48.184;16.298;2023-07-09T04:58:47;99849.81;;;18.51;81.62
43503;BME280;29098;48.184;16.298;2023-07-09T05:01:13;99847.44;;;18.43;80.96
43503;BME280;29098;48.184;16.298;2023-07-09T05:03:38;99882.97;;;18.62;80.66
43503;BME280;29098;48.184;16.298;2023-07-09T05:06:04;99869.63;;;18.81;79.54
43503;BME280;29098;48.184;16.298;2023-07-09T05:08:30;99861.84;;;18.79;79.92
43503;BME280;29098;48.184;16.298;2023-07-09T05:10:57;99875.03;;;18.93;79.28
43503;BME280;29098;48.184;16.298;2023-07-09T05:13:24;99848.69;;;18.96;78.41
43503;BME280;29098;48.184;16.298;2023-07-09T05:15:50;99870.59;;;19.05;78.03
43503;BME280;29098;48.184;16.298;2023-07-09T05:18:17;99878.22;;;19.20;76.95
43503;BME280;29098;48.184;16.298;2023-07-09T05:20:43;99898.03;;;19.31;77.12
43503;BME280;29098;48.184;16.298;2023-07-09T05:23:09;99876.03;;;19.29;77.42
43503;BME280;29098;48.184;16.298;2023-07-09T05:25:35;99876.44;;;19.44;76.94
43503;BME280;29098;48.184;16.298;2023-07-09T05:28:02;99865.88;;;19.50;76.89
43503;BME280;29098;48.184;16.298;2023-07-09T05:30:27;99864.84;;;19.51;76.59
43503;BME280;29098;48.184;16.298;2023-07-09T05:32:53;99877.78;;;19.54;76.39
43503;BME280;29098;48.184;16.298;2023-07-09T05:35:21;99900.34;;;19.70;76.52
43503;BME280;29098;48.184;16.298;2023-07-09T05:37:46;99847.75;;;19.52;75.04
43503;BME280;29098;48.184;16.298;2023-07-09T05:40:12;99867.84;;;19.85;74.75
43503;BME280;29098;48.184;16.298;2023-07-09T05:42:38;99895.22;;;19.99;74.58
43503;BME280;29098;48.184;16.298;2023-07-09T05:45:03;99891.50;;;20.12;74.36
43503;BME280;29098;48.184;16.298;2023-07-09T05:47:29;99867.88;;;20.09;73.86
43503;BME280;29098;48.184;16.298;2023-07-09T05:49:55;99879.66;;;20.20;73.62
43503;BME280;29098;48.184;16.298;2023-07-09T05:52:22;99876.97;;;20.32;73.79
43503;BME280;29098;48.184;16.298;2023-07-09T05:54:51;99887.44;;;20.45;71.81
43503;BME280;29098;48.184;16.298;2023-07-09T05:57:17;99882.75;;;20.52;71.96
43503;BME280;29098;48.184;16.298;2023-07-09T05:59:43;99908.03;;;20.69;70.94
43503;BME280;29098;48.184;16.298;2023-07-09T06:02:14;99884.81;;;20.74;71.20
43503;BME280;29098;48.184;16.298;2023-07-09T06:04:39;99872.03;;;20.76;70.34
43503;BME280;29098;48.184;16.298;2023-07-09T06:07:05;99881.78;;;20.83;70.90
43503;BME280;29098;48.184;16.298;2023-07-09T06:09:30;99867.03;;;20.80;70.54
43503;BME280;29098;48.184;16.298;2023-07-09T06:11:57;99881.88;;;21.00;70.19
43503;BME280;29098;48.184;16.298;2023-07-09T06:14:23;99895.13;;;21.18;70.08
43503;BME280;29098;48.184;16.298;2023-07-09T06:16:48;99863.66;;;21.14;69.89
43503;BME280;29098;48.184;16.298;2023-07-09T06:19:13;99876.31;;;21.30;68.78
43503;BME280;29098;48.184;16.298;2023-07-09T06:21:40;99889.06;;;21.40;68.14
43503;BME280;29098;48.184;16.298;2023-07-09T06:24:06;99896.59;;;21.55;68.11
43503;BME280;29098;48.184;16.298;2023-07-09T06:26:32;99916.56;;;21.76;67.24
43503;BME280;29098;48.184;16.298;2023-07-09T06:28:57;99906.66;;;21.77;66.90
43503;BME280;29098;48.184;16.298;2023-07-09T06:31:23;99897.31;;;21.80;66.32
43503;BME280;29098;48.184;16.298;2023-07-09T06:33:50;99887.97;;;21.99;66.06
43503;BME280;29098;48.184;16.298;2023-07-09T06:36:17;99908.78;;;22.09;66.38
43503;BME280;29098;48.184;16.298;2023-07-09T06:38:42;99866.16;;;21.96;66.04
43503;BME280;29098;48.184;16.298;2023-07-09T06:41:08;99893.88;;;22.19;64.43
43503;BME280;29098;48.184;16.298;2023-07-09T06:43:34;99920.97;;;22.34;65.01
43503;BME280;29098;48.184;16.298;2023-07-09T06:46:00;99898.38;;;22.30;65.50
43503;BME280;29098;48.184;16.298;2023-07-09T06:48:27;99885.31;;;22.39;66.14
43503;BME280;29098;48.184;16.298;2023-07-09T06:50:55;99910.13;;;22.63;64.46
43503;BME280;29098;48.184;16.298;2023-07-09T06:53:21;99928.69;;;22.65;64.94
43503;BME280;29098;48.184;16.298;2023-07-09T06:55:47;99912.56;;;22.65;64.58
43503;BME280;29098;48.184;16.298;2023-07-09T06:58:20;99923.22;;;22.77;64.11
43503;BME280;29098;48.184;16.298;2023-07-09T07:00:47;99886.56;;;22.70;63.37
43503;BME280;29098;48.184;16.298;2023-07-09T07:03:14;99866.38;;;22.90;62.31
43503;BME280;29098;48.184;16.298;2023-07-09T07:05:46;99899.13;;;23.09;62.48
43503;BME280;29098;48.184;16.298;2023-07-09T07:08:15;99921.75;;;23.36;61.91
43503;BME280;29098;48.184;16.298;2023-07-09T07:10:41;99911.06;;;23.41;61.24
43503;BME280;29098;48.184;16.298;2023-07-09T07:13:07;99888.72;;;23.40;61.79
43503;BME280;29098;48.184;16.298;2023-07-09T07:15:33;99895.84;;;23.52;61.88
43503;BME280;29098;48.184;16.298;2023-07-09T07:17:58;99897.22;;;23.55;61.70
43503;BME280;29098;48.184;16.298;2023-07-09T07:20:24;99899.44;;;23.63;62.11
43503;BME280;29098;48.184;16.298;2023-07-09T07:22:49;99877.44;;;23.71;58.01
43503;BME280;29098;48.184;16.298;2023-07-09T07:25:15;99860.38;;;23.93;57.59
43503;BME280;29098;48.184;16.298;2023-07-09T07:27:41;99874.63;;;23.88;58.58
43503;BME280;29098;48.184;16.298;2023-07-09T07:30:07;99912.75;;;24.07;58.63
43503;BME280;29098;48.184;16.298;2023-07-09T07:32:38;99883.94;;;24.08;58.89
43503;BME280;29098;48.184;16.298;2023-07-09T07:35:07;99871.88;;;24.16;59.14
43503;BME280;29098;48.184;16.298;2023-07-09T07:37:33;99881.59;;;24.22;60.09
43503;BME280;29098;48.184;16.298;2023-07-09T07:39:58;99867.06;;;24.23;57.70
43503;BME280;29098;48.184;16.298;2023-07-09T07:42:24;99849.25;;;24.17;58.37
43503;BME280;29098;48.184;16.298;2023-07-09T07:44:49;99880.38;;;24.45;57.42
43503;BME280;29098;48.184;16.298;2023-07-09T07:47:15;99881.22;;;24.51;58.11
43503;BME280;29098;48.184;16.298;2023-07-09T07:49:40;99849.38;;;24.43;59.52
43503;BME280;29098;48.184;16.298;2023-07-09T07:52:07;99872.91;;;24.58;57.34
43503;BME280;29098;48.184;16.298;2023-07-09T07:54:32;99885.66;;;24.78;57.08
43503;BME280;29098;48.184;16.298;2023-07-09T07:56:58;99893.88;;;25.04;57.05
43503;BME280;29098;48.184;16.298;2023-07-09T07:59:24;99884.47;;;25.12;56.35
43503;BME280;29098;48.184;16.298;2023-07-09T08:01:49;99894.75;;;25.30;55.66
43503;BME280;29098;48.184;16.298;2023-07-09T08:04:15;99869.41;;;25.37;56.81
43503;BME280;29098;48.184;16.298;2023-07-09T08:06:41;99859.97;;;25.39;56.35
43503;BME280;29098;48.184;16.298;2023-07-09T08:09:06;99855.66;;;25.59;56.38
43503;BME280;29098;48.184;16.298;2023-07-09T08:11:32;99877.28;;;25.85;54.32
43503;BME280;29098;48.184;16.298;2023-07-09T08:13:58;99876.19;;;25.91;53.79
43503;BME280;29098;48.184;16.298;2023-07-09T08:16:23;99895.06;;;26.07;54.91
43503;BME280;29098;48.184;16.298;2023-07-09T08:18:49;99872.13;;;26.04;54.43
43503;BME280;29098;48.184;16.298;2023-07-09T08:21:17;99882.66;;;26.16;53.19
43503;BME280;29098;48.184;16.298;2023-07-09T08:23:42;99861.59;;;26.03;53.22
43503;BME280;29098;48.184;16.298;2023-07-09T08:26:08;99870.22;;;26.10;53.21
43503;BME280;29098;48.184;16.298;2023-07-09T08:28:34;99847.53;;;26.11;52.25
43503;BME280;29098;48.184;16.298;2023-07-09T08:31:00;99895.91;;;26.28;52.07
43503;BME280;29098;48.184;16.298;2023-07-09T08:33:26;99888.63;;;26.23;51.34
43503;BME280;29098;48.184;16.298;2023-07-09T08:35:52;99867.50;;;26.20;51.81
43503;BME280;29098;48.184;16.298;2023-07-09T08:38:19;99888.84;;;26.37;51.97
43503;BME280;29098;48.184;16.298;2023-07-09T08:40:54;99875.34;;;26.32;52.11
43503;BME280;29098;48.184;16.298;2023-07-09T08:47:06;99892.84;;;26.50;51.32
43503;BME280;29098;48.184;16.298;2023-07-09T08:52:16;99849.13;;;26.33;49.87
43503;BME280;29098;48.184;16.298;2023-07-09T08:54:46;99842.06;;;26.42;50.48
43503;BME280;29098;48.184;16.298;2023-07-09T08:57:25;99875.28;;;26.58;49.93
43503;BME280;29098;48.184;16.298;2023-07-09T08:59:57;99857.50;;;26.36;48.47
43503;BME280;29098;48.184;16.298;2023-07-09T09:05:15;99885.78;;;26.70;47.26
43503;BME280;29098;48.184;16.298;2023-07-09T09:07:43;99900.59;;;26.83;45.56
43503;BME280;29098;48.184;16.298;2023-07-09T09:10:23;99864.41;;;26.69;45.60
43503;BME280;29098;48.184;16.298;2023-07-09T09:13:02;99897.59;;;26.90;47.68
43503;BME280;29098;48.184;16.298;2023-07-09T09:15:31;99888.38;;;26.96;46.97
43503;BME280;29098;48.184;16.298;2023-07-09T09:18:10;99872.94;;;27.02;47.86
43503;BME280;29098;48.184;16.298;2023-07-09T09:20:40;99868.09;;;26.99;47.06
43503;BME280;29098;48.184;16.298;2023-07-09T09:25:37;99895.56;;;27.16;46.52
43503;BME280;29098;48.184;16.298;2023-07-09T09:28:04;99910.34;;;27.34;46.09
43503;BME280;29098;48.184;16.298;2023-07-09T09:30:30;99870.34;;;27.26;44.56
43503;BME280;29098;48.184;16.298;2023-07-09T09:32:58;99881.56;;;27.49;40.11
43503;BME280;29098;48.184;16.298;2023-07-09T09:35:35;99858.47;;;27.22;41.10
43503;BME280;29098;48.184;16.298;2023-07-09T09:38:01;99890.56;;;27.39;41.67
43503;BME280;29098;48.184;16.298;2023-07-09T09:40:29;99851.50;;;27.16;42.17
43503;BME280;29098;48.184;16.298;2023-07-09T09:42:58;99861.69;;;27.64;38.52
43503;BME280;29098;48.184;16.298;2023-07-09T09:45:38;99898.09;;;27.87;36.93
43503;BME280;29098;48.184;16.298;2023-07-09T09:48:14;99858.22;;;27.58;38.38
43503;BME280;29098;48.184;16.298;2023-07-09T09:50:40;99877.19;;;27.88;36.65
43503;BME280;29098;48.184;16.298;2023-07-09T09:53:07;99850.09;;;27.88;37.26
43503;BME280;29098;48.184;16.298;2023-07-09T09:55:33;99888.59;;;27.90;38.71
43503;BME280;29098;48.184;16.298;2023-07-09T09:58:00;99857.25;;;28.08;37.38
43503;BME280;29098;48.184;16.298;2023-07-09T10:00:27;99839.44;;;28.02;38.08
43503;BME280;29098;48.184;16.298;2023-07-09T10:03:01;99879.56;;;28.29;37.62
43503;BME280;29098;48.184;16.298;2023-07-09T10:05:37;99853.38;;;28.14;37.44
43503;BME280;29098;48.184;16.298;2023-07-09T10:08:15;99859.41;;;28.06;37.20
43503;BME280;29098;48.184;16.298;2023-07-09T10:10:44;99844.94;;;27.92;35.38
43503;BME280;29098;48.184;16.298;2023-07-09T10:21:27;99851.53;;;28.39;38.46
43503;BME280;29098;48.184;16.298;2023-07-09T10:24:19;99858.28;;;28.61;37.70
43503;BME280;29098;48.184;16.298;2023-07-09T10:26:53;99865.94;;;28.78;38.01
43503;BME280;29098;48.184;16.298;2023-07-09T10:29:44;99827.38;;;28.62;37.62
43503;BME280;29098;48.184;16.298;2023-07-09T10:40:02;99820.53;;;28.89;38.19
43503;BME280;29098;48.184;16.298;2023-07-09T10:42:36;99851.25;;;29.23;37.66
43503;BME280;29098;48.184;16.298;2023-07-09T10:45:19;99855.06;;;29.41;37.63
43503;BME280;29098;48.184;16.298;2023-07-09T10:47:51;99829.50;;;29.42;36.76
43503;BME280;29098;48.184;16.298;2023-07-09T10:50:39;99836.78;;;29.47;37.93
43503;BME280;29098;48.184;16.298;2023-07-09T10:53:14;99837.88;;;29.79;37.08
43503;BME280;29098;48.184;16.298;2023-07-09T10:55:52;99846.94;;;29.88;36.79
43503;BME280;29098;48.184;16.298;2023-07-09T10:58:28;99865.50;;;30.00;37.25
43503;BME280;29098;48.184;16.298;2023-07-09T11:00:59;99859.53;;;29.98;35.89
43503;BME280;29098;48.184;16.298;2023-07-09T11:03:42;99838.53;;;30.04;35.22
43503;BME280;29098;48.184;16.298;2023-07-09T11:06:18;99832.88;;;30.00;34.19
43503;BME280;29098;48.184;16.298;2023-07-09T11:08:45;99852.44;;;30.16;34.44
43503;BME280;29098;48.184;16.298;2023-07-09T11:11:43;99818.72;;;30.17;34.92
43503;BME280;29098;48.184;16.298;2023-07-09T11:14:25;99812.47;;;30.17;34.39
43503;BME280;29098;48.184;16.298;2023-07-09T11:16:55;99805.00;;;30.37;33.99
43503;BME280;29098;48.184;16.298;2023-07-09T11:19:21;99815.25;;;30.54;33.42
43503;BME280;29098;48.184;16.298;2023-07-09T11:22:24;99818.56;;;30.79;33.06
43503;BME280;29098;48.184;16.298;2023-07-09T11:25:11;99831.19;;;30.74;32.21
43503;BME280;29098;48.184;16.298;2023-07-09T11:27:50;99834.25;;;30.96;30.51
43503;BME280;29098;48.184;16.298;2023-07-09T11:30:23;99813.44;;;31.00;29.50
43503;BME280;29098;48.184;16.298;2023-07-09T11:32:56;99794.16;;;31.10;28.57
43503;BME280;29098;48.184;16.298;2023-07-09T11:35:28;99829.78;;;31.37;28.78
43503;BME280;29098;48.184;16.298;2023-07-09T11:37:55;99807.22;;;31.22;28.43
43503;BME280;29098;48.184;16.298;2023-07-09T11:40:22;99793.56;;;31.36;28.21
43503;BME280;29098;48.184;16.298;2023-07-09T11:42:59;99816.31;;;31.63;29.04
43503;BME280;29098;48.184;16.298;2023-07-09T11:45:28;99785.41;;;31.77;27.75
43503;BME280;29098;48.184;16.298;2023-07-09T11:48:27;99806.56;;;32.03;28.38
43503;BME280;29098;48.184;16.298;2023-07-09T11:50:55;99798.56;;;32.15;26.58
43503;BME280;29098;48.184;16.298;2023-07-09T11:53:35;99787.97;;;32.05;27.85
43503;BME280;29098;48.184;16.298;2023-07-09T11:56:03;99806.75;;;32.15;27.08
43503;BME280;29098;48.184;16.298;2023-07-09T11:58:28;99787.84;;;32.19;28.62
43503;BME280;29098;48.184;16.298;2023-07-09T12:00:55;99795.94;;;32.42;28.24
43503;BME280;29098;48.184;16.298;2023-07-09T12:03:29;99800.00;;;32.62;27.45
43503;BME280;29098;48.184;16.298;2023-07-09T12:06:00;99783.94;;;32.60;26.06
43503;BME280;29098;48.184;16.298;2023-07-09T12:08:37;99773.16;;;32.73;26.44
43503;BME280;29098;48.184;16.298;2023-07-09T12:11:03;99781.38;;;32.82;27.06
43503;BME280;29098;48.184;16.298;2023-07-09T12:13:29;99774.63;;;32.88;25.35
43503;BME280;29098;48.184;16.298;2023-07-09T12:16:01;99778.47;;;32.96;26.38
43503;BME280;29098;48.184;16.298;2023-07-09T12:18:26;99784.56;;;33.10;27.56
43503;BME280;29098;48.184;16.298;2023-07-09T12:20:54;99782.31;;;33.21;26.96
43503;BME280;29098;48.184;16.298;2023-07-09T12:23:27;99766.13;;;33.16;27.49
43503;BME280;29098;48.184;16.298;2023-07-09T12:25:54;99767.84;;;33.29;27.15
43503;BME280;29098;48.184;16.298;2023-07-09T12:28:21;99762.97;;;33.44;26.71
43503;BME280;29098;48.184;16.298;2023-07-09T12:30:48;99752.41;;;33.33;25.00
43503;BME280;29098;48.184;16.298;2023-07-09T12:33:19;99748.66;;;33.56;24.28
43503;BME280;29098;48.184;16.298;2023-07-09T12:35:46;99758.53;;;33.78;24.58
43503;BME280;29098;48.184;16.298;2023-07-09T12:38:25;99762.00;;;33.57;23.74
43503;BME280;29098;48.184;16.298;2023-07-09T12:40:51;99787.66;;;33.74;24.77
43503;BME280;29098;48.184;16.298;2023-07-09T12:43:23;99734.22;;;33.38;22.98
43503;BME280;29098;48.184;16.298;2023-07-09T12:45:50;99738.03;;;33.54;24.18
43503;BME280;29098;48.184;16.298;2023-07-09T12:48:16;99738.16;;;34.06;23.20
43503;BME280;29098;48.184;16.298;2023-07-09T12:50:48;99752.50;;;33.94;23.31
43503;BME280;29098;48.184;16.298;2023-07-09T12:53:18;99734.13;;;33.25;21.63
43503;BME280;29098;48.184;16.298;2023-07-09T12:55:47;99763.53;;;33.76;22.36
43503;BME280;29098;48.184;16.298;2023-07-09T13:00:52;99720.28;;;34.08;23.59
43503;BME280;29098;48.184;16.298;2023-07-09T13:03:21;99701.53;;;34.19;24.63
43503;BME280;29098;48.184;16.298;2023-07-09T13:06:00;99746.47;;;34.39;23.04
43503;BME280;29098;48.184;16.298;2023-07-09T13:08:28;99708.34;;;34.13;22.34
43503;BME280;29098;48.184;16.298;2023-07-09T13:10:54;99711.59;;;34.27;22.21
43503;BME280;29098;48.184;16.298;2023-07-09T13:13:22;99717.47;;;34.17;21.04
43503;BME280;29098;48.184;16.298;2023-07-09T13:15:52;99742.97;;;34.30;21.39
43503;BME280;29098;48.184;16.298;2023-07-09T13:18:21;99743.16;;;34.55;22.25
43503;BME280;29098;48.184;16.298;2023-07-09T13:20:47;99743.94;;;34.55;22.63
43503;BME280;29098;48.184;16.298;2023-07-09T13:25:46;99738.72;;;34.63;23.65
43503;BME280;29098;48.184;16.298;2023-07-09T13:28:24;99733.84;;;34.68;22.37
43503;BME280;29098;48.184;16.298;2023-07-09T13:30:55;99719.69;;;34.66;22.96
43503;BME280;29098;48.184;16.298;2023-07-09T13:33:22;99726.50;;;34.60;23.28